Route Details

Aircraft Information
Group: Trans-Atlantic Ops
Types: A31F, B744, B763, MD11
Route Data
Distance: 3135nm
Duration: 7h 04m
Origin METAR: KIAD 100552Z 30004KT 10SM FEW060 M01/M04 A3029 RMK AO2 SLP260 T10111044 10056 21022 53001
Dest. METAR: EGNX 100550Z 22007KT 9999 BKN012 M01/M02 Q1007
Freight Data
(for Dec 10, 2022)
Load Factor:
48%
Manifested Cargo: 68,134lbs
Financial History
Total Freight: 311,823lbs
Average Load: 0lbs/flt
Fuel Used: 300,474lbs
Avg. Fuel Used: 0lbs/flt
Fuel Expense: $160,366
Avg. Fuel Expense: $0
Avg. Fuel Cost: $0/lbs
Total Gross Income: $723,429
Pilot Pay: $587
Total Expenses: $141,359
Total Revenue: $414,889
Average Revenue: $0

Capitol Logistics 323




KIAD
Washington Dulles International Airport
Dulles, Virginia
EGNX
East Midlands Airport
Derby,